sensor_id;sensor_type;location;lat;lon;timestamp;P1;durP1;ratioP1;P2;durP2;ratioP2
35917;SDS011;22011;59.912;30.300;2023-12-29T00:00:31;7.53;;;4.47;;
35917;SDS011;22011;59.912;30.300;2023-12-29T00:03:00;8.13;;;4.40;;
35917;SDS011;22011;59.912;30.300;2023-12-29T00:05:27;9.55;;;3.88;;
35917;SDS011;22011;59.912;30.300;2023-12-29T00:07:55;10.82;;;4.20;;
35917;SDS011;22011;59.912;30.300;2023-12-29T00:10:22;4.85;;;3.45;;
35917;SDS011;22011;59.912;30.300;2023-12-29T00:12:50;7.25;;;3.53;;
35917;SDS011;22011;59.912;30.300;2023-12-29T00:15:18;5.30;;;3.50;;
35917;SDS011;22011;59.912;30.300;2023-12-29T00:17:45;5.50;;;4.03;;
35917;SDS011;22011;59.912;30.300;2023-12-29T00:20:14;4.97;;;3.65;;
35917;SDS011;22011;59.912;30.300;2023-12-29T00:22:42;7.25;;;3.83;;
35917;SDS011;22011;59.912;30.300;2023-12-29T00:25:10;6.72;;;4.00;;
35917;SDS011;22011;59.912;30.300;2023-12-29T00:27:37;10.27;;;4.43;;
35917;SDS011;22011;59.912;30.300;2023-12-29T00:30:05;6.10;;;4.18;;
35917;SDS011;22011;59.912;30.300;2023-12-29T00:32:34;7.25;;;4.53;;
35917;SDS011;22011;59.912;30.300;2023-12-29T00:35:02;5.18;;;3.70;;
35917;SDS011;22011;59.912;30.300;2023-12-29T00:37:32;8.30;;;4.45;;
35917;SDS011;22011;59.912;30.300;2023-12-29T00:39:59;8.88;;;4.07;;
35917;SDS011;22011;59.912;30.300;2023-12-29T00:42:27;4.53;;;3.88;;
35917;SDS011;22011;59.912;30.300;2023-12-29T00:44:55;6.80;;;4.32;;
35917;SDS011;22011;59.912;30.300;2023-12-29T00:47:23;6.68;;;4.25;;
35917;SDS011;22011;59.912;30.300;2023-12-29T00:49:50;5.78;;;4.22;;
35917;SDS011;22011;59.912;30.300;2023-12-29T00:52:18;7.97;;;4.60;;
35917;SDS011;22011;59.912;30.300;2023-12-29T00:54:52;6.22;;;4.05;;
35917;SDS011;22011;59.912;30.300;2023-12-29T00:57:20;8.15;;;3.75;;
35917;SDS011;22011;59.912;30.300;2023-12-29T00:59:48;5.20;;;3.63;;
35917;SDS011;22011;59.912;30.300;2023-12-29T01:02:15;6.57;;;3.15;;
35917;SDS011;22011;59.912;30.300;2023-12-29T01:04:43;6.60;;;3.45;;
35917;SDS011;22011;59.912;30.300;2023-12-29T01:07:10;4.68;;;3.67;;
35917;SDS011;22011;59.912;30.300;2023-12-29T01:09:38;5.28;;;3.08;;
35917;SDS011;22011;59.912;30.300;2023-12-29T01:12:07;4.68;;;3.15;;
35917;SDS011;22011;59.912;30.300;2023-12-29T01:14:35;4.93;;;3.25;;
35917;SDS011;22011;59.912;30.300;2023-12-29T01:17:03;4.53;;;3.28;;
35917;SDS011;22011;59.912;30.300;2023-12-29T01:19:31;7.10;;;4.05;;
35917;SDS011;22011;59.912;30.300;2023-12-29T01:21:58;8.82;;;3.47;;
35917;SDS011;22011;59.912;30.300;2023-12-29T01:24:26;5.53;;;3.63;;
35917;SDS011;22011;59.912;30.300;2023-12-29T01:26:54;6.30;;;3.45;;
35917;SDS011;22011;59.912;30.300;2023-12-29T01:29:23;5.90;;;4.00;;
35917;SDS011;22011;59.912;30.300;2023-12-29T01:31:51;5.28;;;3.58;;
35917;SDS011;22011;59.912;30.300;2023-12-29T01:34:18;7.43;;;4.50;;
35917;SDS011;22011;59.912;30.300;2023-12-29T01:36:46;7.53;;;3.63;;
35917;SDS011;22011;59.912;30.300;2023-12-29T01:39:13;8.43;;;4.40;;
35917;SDS011;22011;59.912;30.300;2023-12-29T01:41:41;5.65;;;3.92;;
35917;SDS011;22011;59.912;30.300;2023-12-29T01:44:17;8.48;;;4.80;;
35917;SDS011;22011;59.912;30.300;2023-12-29T01:46:47;9.07;;;4.70;;
35917;SDS011;22011;59.912;30.300;2023-12-29T01:49:17;8.23;;;4.68;;
35917;SDS011;22011;59.912;30.300;2023-12-29T01:51:48;7.70;;;4.55;;
35917;SDS011;22011;59.912;30.300;2023-12-29T01:54:18;11.55;;;6.22;;
35917;SDS011;22011;59.912;30.300;2023-12-29T01:56:47;9.43;;;6.55;;
35917;SDS011;22011;59.912;30.300;2023-12-29T01:59:16;13.35;;;8.23;;
35917;SDS011;22011;59.912;30.300;2023-12-29T02:01:44;13.20;;;8.45;;
35917;SDS011;22011;59.912;30.300;2023-12-29T02:04:14;11.98;;;8.38;;
35917;SDS011;22011;59.912;30.300;2023-12-29T02:09:10;10.32;;;7.25;;
35917;SDS011;22011;59.912;30.300;2023-12-29T02:11:39;12.30;;;8.82;;
35917;SDS011;22011;59.912;30.300;2023-12-29T02:14:07;13.60;;;7.65;;
35917;SDS011;22011;59.912;30.300;2023-12-29T02:16:37;15.90;;;8.02;;
35917;SDS011;22011;59.912;30.300;2023-12-29T02:19:17;13.73;;;8.55;;
35917;SDS011;22011;59.912;30.300;2023-12-29T02:21:54;14.52;;;8.00;;
35917;SDS011;22011;59.912;30.300;2023-12-29T02:24:23;15.02;;;9.05;;
35917;SDS011;22011;59.912;30.300;2023-12-29T02:27:00;14.55;;;9.95;;
35917;SDS011;22011;59.912;30.300;2023-12-29T02:29:35;15.68;;;9.20;;
35917;SDS011;22011;59.912;30.300;2023-12-29T02:32:08;14.45;;;8.63;;
35917;SDS011;22011;59.912;30.300;2023-12-29T02:34:40;15.48;;;8.95;;
35917;SDS011;22011;59.912;30.300;2023-12-29T02:37:10;15.10;;;8.75;;
35917;SDS011;22011;59.912;30.300;2023-12-29T02:39:39;12.18;;;7.65;;
35917;SDS011;22011;59.912;30.300;2023-12-29T02:42:09;13.35;;;8.30;;
35917;SDS011;22011;59.912;30.300;2023-12-29T02:44:37;12.40;;;8.15;;
35917;SDS011;22011;59.912;30.300;2023-12-29T02:47:04;15.68;;;10.57;;
35917;SDS011;22011;59.912;30.300;2023-12-29T02:49:32;18.15;;;9.93;;
35917;SDS011;22011;59.912;30.300;2023-12-29T02:52:00;16.30;;;9.93;;
35917;SDS011;22011;59.912;30.300;2023-12-29T02:54:28;16.27;;;11.05;;
35917;SDS011;22011;59.912;30.300;2023-12-29T02:56:55;18.33;;;10.77;;
35917;SDS011;22011;59.912;30.300;2023-12-29T02:59:24;14.35;;;10.05;;
35917;SDS011;22011;59.912;30.300;2023-12-29T03:01:52;20.20;;;11.05;;
35917;SDS011;22011;59.912;30.300;2023-12-29T03:04:19;20.23;;;10.93;;
35917;SDS011;22011;59.912;30.300;2023-12-29T03:06:47;15.80;;;10.38;;
35917;SDS011;22011;59.912;30.300;2023-12-29T03:09:15;18.17;;;11.77;;
35917;SDS011;22011;59.912;30.300;2023-12-29T03:11:42;16.38;;;11.00;;
35917;SDS011;22011;59.912;30.300;2023-12-29T03:14:10;19.67;;;11.43;;
35917;SDS011;22011;59.912;30.300;2023-12-29T03:16:39;21.35;;;12.80;;
35917;SDS011;22011;59.912;30.300;2023-12-29T03:19:07;20.35;;;12.98;;
35917;SDS011;22011;59.912;30.300;2023-12-29T03:21:34;22.98;;;13.45;;
35917;SDS011;22011;59.912;30.300;2023-12-29T03:24:02;22.15;;;13.35;;
35917;SDS011;22011;59.912;30.300;2023-12-29T03:26:30;23.10;;;13.77;;
35917;SDS011;22011;59.912;30.300;2023-12-29T03:28:57;23.65;;;13.50;;
35917;SDS011;22011;59.912;30.300;2023-12-29T03:31:25;20.73;;;12.93;;
35917;SDS011;22011;59.912;30.300;2023-12-29T03:33:54;19.13;;;12.07;;
35917;SDS011;22011;59.912;30.300;2023-12-29T03:36:21;25.67;;;12.75;;
35917;SDS011;22011;59.912;30.300;2023-12-29T03:38:49;18.55;;;11.93;;
35917;SDS011;22011;59.912;30.300;2023-12-29T03:41:17;18.42;;;12.13;;
35917;SDS011;22011;59.912;30.300;2023-12-29T03:43:44;15.52;;;10.68;;
35917;SDS011;22011;59.912;30.300;2023-12-29T03:46:15;17.40;;;10.98;;
35917;SDS011;22011;59.912;30.300;2023-12-29T03:48:44;17.92;;;10.35;;
35917;SDS011;22011;59.912;30.300;2023-12-29T03:51:13;17.70;;;9.95;;
35917;SDS011;22011;59.912;30.300;2023-12-29T03:53:41;16.20;;;10.10;;
35917;SDS011;22011;59.912;30.300;2023-12-29T03:56:12;14.05;;;9.75;;
35917;SDS011;22011;59.912;30.300;2023-12-29T03:58:42;13.00;;;8.90;;
35917;SDS011;22011;59.912;30.300;2023-12-29T04:01:10;15.75;;;9.55;;
35917;SDS011;22011;59.912;30.300;2023-12-29T04:03:38;15.90;;;9.10;;
35917;SDS011;22011;59.912;30.300;2023-12-29T04:06:06;16.08;;;10.20;;
35917;SDS011;22011;59.912;30.300;2023-12-29T04:08:36;14.35;;;9.55;;
35917;SDS011;22011;59.912;30.300;2023-12-29T04:11:05;11.15;;;8.43;;
35917;SDS011;22011;59.912;30.300;2023-12-29T04:13:32;14.35;;;9.40;;
35917;SDS011;22011;59.912;30.300;2023-12-29T04:16:00;14.05;;;8.43;;
35917;SDS011;22011;59.912;30.300;2023-12-29T04:18:28;11.70;;;8.07;;
35917;SDS011;22011;59.912;30.300;2023-12-29T04:20:56;11.90;;;8.07;;
35917;SDS011;22011;59.912;30.300;2023-12-29T04:23:23;12.05;;;7.53;;
35917;SDS011;22011;59.912;30.300;2023-12-29T04:25:52;16.15;;;7.35;;
35917;SDS011;22011;59.912;30.300;2023-12-29T04:28:20;10.57;;;7.43;;
35917;SDS011;22011;59.912;30.300;2023-12-29T04:30:48;13.55;;;7.30;;
35917;SDS011;22011;59.912;30.300;2023-12-29T04:33:15;10.88;;;6.60;;
35917;SDS011;22011;59.912;30.300;2023-12-29T04:35:43;10.32;;;6.70;;
35917;SDS011;22011;59.912;30.300;2023-12-29T04:38:10;10.40;;;6.90;;
35917;SDS011;22011;59.912;30.300;2023-12-29T04:40:38;13.13;;;6.78;;
35917;SDS011;22011;59.912;30.300;2023-12-29T04:43:07;9.93;;;6.70;;
35917;SDS011;22011;59.912;30.300;2023-12-29T04:45:34;10.85;;;6.93;;
35917;SDS011;22011;59.912;30.300;2023-12-29T04:48:02;11.27;;;7.00;;
35917;SDS011;22011;59.912;30.300;2023-12-29T04:50:30;14.95;;;8.45;;
35917;SDS011;22011;59.912;30.300;2023-12-29T04:52:58;14.80;;;7.47;;
35917;SDS011;22011;59.912;30.300;2023-12-29T04:55:26;12.82;;;7.32;;
35917;SDS011;22011;59.912;30.300;2023-12-29T04:57:53;11.05;;;6.55;;
35917;SDS011;22011;59.912;30.300;2023-12-29T05:00:22;9.90;;;6.57;;
35917;SDS011;22011;59.912;30.300;2023-12-29T05:02:50;10.60;;;6.18;;
35917;SDS011;22011;59.912;30.300;2023-12-29T05:05:17;9.50;;;6.35;;
35917;SDS011;22011;59.912;30.300;2023-12-29T05:07:45;12.80;;;6.78;;
35917;SDS011;22011;59.912;30.300;2023-12-29T05:10:13;11.05;;;6.80;;
35917;SDS011;22011;59.912;30.300;2023-12-29T05:12:40;9.35;;;6.45;;
35917;SDS011;22011;59.912;30.300;2023-12-29T05:15:08;11.68;;;5.97;;
35917;SDS011;22011;59.912;30.300;2023-12-29T05:17:38;9.00;;;5.93;;
35917;SDS011;22011;59.912;30.300;2023-12-29T05:20:06;9.50;;;6.55;;
35917;SDS011;22011;59.912;30.300;2023-12-29T05:22:35;8.45;;;6.07;;
35917;SDS011;22011;59.912;30.300;2023-12-29T05:25:02;9.23;;;5.05;;
35917;SDS011;22011;59.912;30.300;2023-12-29T05:27:31;11.10;;;6.85;;
35917;SDS011;22011;59.912;30.300;2023-12-29T05:29:58;8.77;;;6.30;;
35917;SDS011;22011;59.912;30.300;2023-12-29T05:32:26;9.25;;;5.78;;
35917;SDS011;22011;59.912;30.300;2023-12-29T05:34:55;8.98;;;6.13;;
35917;SDS011;22011;59.912;30.300;2023-12-29T05:37:22;10.40;;;6.75;;
35917;SDS011;22011;59.912;30.300;2023-12-29T05:39:50;12.50;;;6.45;;
35917;SDS011;22011;59.912;30.300;2023-12-29T05:42:18;10.68;;;6.22;;
35917;SDS011;22011;59.912;30.300;2023-12-29T05:44:46;10.75;;;5.70;;
35917;SDS011;22011;59.912;30.300;2023-12-29T05:47:13;8.43;;;5.90;;
35917;SDS011;22011;59.912;30.300;2023-12-29T05:49:41;8.55;;;5.95;;
35917;SDS011;22011;59.912;30.300;2023-12-29T05:52:10;8.55;;;6.07;;
35917;SDS011;22011;59.912;30.300;2023-12-29T05:54:38;11.73;;;6.85;;
35917;SDS011;22011;59.912;30.300;2023-12-29T05:57:06;10.70;;;6.55;;
35917;SDS011;22011;59.912;30.300;2023-12-29T05:59:33;9.82;;;6.45;;
35917;SDS011;22011;59.912;30.300;2023-12-29T06:02:01;9.50;;;6.78;;
35917;SDS011;22011;59.912;30.300;2023-12-29T06:04:29;12.27;;;7.03;;
35917;SDS011;22011;59.912;30.300;2023-12-29T06:06:57;9.60;;;6.18;;
35917;SDS011;22011;59.912;30.300;2023-12-29T06:09:26;10.88;;;6.93;;
35917;SDS011;22011;59.912;30.300;2023-12-29T06:11:54;15.15;;;6.70;;
35917;SDS011;22011;59.912;30.300;2023-12-29T06:14:21;11.63;;;7.32;;
35917;SDS011;22011;59.912;30.300;2023-12-29T06:16:49;11.02;;;7.40;;
35917;SDS011;22011;59.912;30.300;2023-12-29T06:19:17;15.18;;;8.55;;
35917;SDS011;22011;59.912;30.300;2023-12-29T06:21:45;12.75;;;8.50;;
35917;SDS011;22011;59.912;30.300;2023-12-29T06:24:13;14.15;;;8.60;;
35917;SDS011;22011;59.912;30.300;2023-12-29T06:26:42;18.83;;;8.60;;
35917;SDS011;22011;59.912;30.300;2023-12-29T06:29:10;14.85;;;8.10;;
35917;SDS011;22011;59.912;30.300;2023-12-29T06:31:39;14.05;;;8.85;;
35917;SDS011;22011;59.912;30.300;2023-12-29T06:34:08;13.48;;;8.27;;
35917;SDS011;22011;59.912;30.300;2023-12-29T06:36:35;16.70;;;10.23;;
35917;SDS011;22011;59.912;30.300;2023-12-29T06:39:03;14.88;;;10.45;;
35917;SDS011;22011;59.912;30.300;2023-12-29T06:41:31;13.73;;;8.93;;
35917;SDS011;22011;59.912;30.300;2023-12-29T06:44:00;16.15;;;8.70;;
35917;SDS011;22011;59.912;30.300;2023-12-29T06:46:28;17.05;;;9.25;;
35917;SDS011;22011;59.912;30.300;2023-12-29T06:48:56;15.50;;;9.18;;
35917;SDS011;22011;59.912;30.300;2023-12-29T06:51:24;19.13;;;10.27;;
35917;SDS011;22011;59.912;30.300;2023-12-29T06:53:51;17.08;;;9.70;;
35917;SDS011;22011;59.912;30.300;2023-12-29T06:56:19;15.07;;;9.75;;
35917;SDS011;22011;59.912;30.300;2023-12-29T06:58:47;14.80;;;9.80;;
35917;SDS011;22011;59.912;30.300;2023-12-29T07:01:16;17.38;;;10.27;;
35917;SDS011;22011;59.912;30.300;2023-12-29T07:03:44;13.20;;;9.13;;
35917;SDS011;22011;59.912;30.300;2023-12-29T07:06:12;14.48;;;9.65;;
35917;SDS011;22011;59.912;30.300;2023-12-29T07:08:39;21.70;;;10.20;;
35917;SDS011;22011;59.912;30.300;2023-12-29T07:11:09;13.98;;;8.80;;
35917;SDS011;22011;59.912;30.300;2023-12-29T07:13:37;16.17;;;10.27;;
35917;SDS011;22011;59.912;30.300;2023-12-29T07:16:06;16.23;;;8.52;;
35917;SDS011;22011;59.912;30.300;2023-12-29T07:18:35;16.08;;;10.00;;
35917;SDS011;22011;59.912;30.300;2023-12-29T07:21:03;15.20;;;10.05;;
35917;SDS011;22011;59.912;30.300;2023-12-29T07:23:31;15.07;;;9.45;;
35917;SDS011;22011;59.912;30.300;2023-12-29T07:25:59;14.48;;;9.43;;
35917;SDS011;22011;59.912;30.300;2023-12-29T07:28:26;14.43;;;8.57;;
35917;SDS011;22011;59.912;30.300;2023-12-29T07:30:54;16.45;;;8.77;;
35917;SDS011;22011;59.912;30.300;2023-12-29T07:33:22;13.07;;;8.25;;
35917;SDS011;22011;59.912;30.300;2023-12-29T07:35:52;12.20;;;8.13;;
35917;SDS011;22011;59.912;30.300;2023-12-29T07:38:19;11.00;;;7.95;;
35917;SDS011;22011;59.912;30.300;2023-12-29T07:40:47;16.42;;;8.63;;
35917;SDS011;22011;59.912;30.300;2023-12-29T07:43:15;12.63;;;7.75;;
35917;SDS011;22011;59.912;30.300;2023-12-29T07:45:43;11.80;;;7.70;;
35917;SDS011;22011;59.912;30.300;2023-12-29T07:48:10;12.13;;;7.47;;
35917;SDS011;22011;59.912;30.300;2023-12-29T07:50:38;14.32;;;8.63;;
35917;SDS011;22011;59.912;30.300;2023-12-29T07:53:07;13.68;;;8.52;;
35917;SDS011;22011;59.912;30.300;2023-12-29T07:55:37;13.13;;;7.18;;
35917;SDS011;22011;59.912;30.300;2023-12-29T07:58:05;13.60;;;7.43;;
35917;SDS011;22011;59.912;30.300;2023-12-29T08:00:35;18.98;;;9.52;;
35917;SDS011;22011;59.912;30.300;2023-12-29T08:03:03;16.70;;;8.55;;
35917;SDS011;22011;59.912;30.300;2023-12-29T08:05:33;12.93;;;7.80;;
35917;SDS011;22011;59.912;30.300;2023-12-29T08:08:01;14.65;;;7.97;;
35917;SDS011;22011;59.912;30.300;2023-12-29T08:10:30;11.85;;;7.07;;
35917;SDS011;22011;59.912;30.300;2023-12-29T08:12:58;11.90;;;7.10;;
35917;SDS011;22011;59.912;30.300;2023-12-29T08:15:26;9.25;;;6.03;;
35917;SDS011;22011;59.912;30.300;2023-12-29T08:17:53;11.88;;;6.68;;
35917;SDS011;22011;59.912;30.300;2023-12-29T08:20:21;11.63;;;6.65;;
35917;SDS011;22011;59.912;30.300;2023-12-29T08:22:50;16.27;;;7.45;;
35917;SDS011;22011;59.912;30.300;2023-12-29T08:25:17;12.60;;;7.15;;
35917;SDS011;22011;59.912;30.300;2023-12-29T08:27:46;15.90;;;6.63;;
35917;SDS011;22011;59.912;30.300;2023-12-29T08:30:14;15.93;;;7.80;;
35917;SDS011;22011;59.912;30.300;2023-12-29T08:32:42;16.63;;;7.15;;
35917;SDS011;22011;59.912;30.300;2023-12-29T08:35:09;12.95;;;7.40;;
35917;SDS011;22011;59.912;30.300;2023-12-29T08:37:37;17.92;;;7.72;;
35917;SDS011;22011;59.912;30.300;2023-12-29T08:40:05;13.30;;;7.28;;
35917;SDS011;22011;59.912;30.300;2023-12-29T08:42:34;14.57;;;8.02;;
35917;SDS011;22011;59.912;30.300;2023-12-29T08:45:04;12.93;;;7.63;;
35917;SDS011;22011;59.912;30.300;2023-12-29T08:47:32;10.70;;;7.20;;
35917;SDS011;22011;59.912;30.300;2023-12-29T08:50:00;13.68;;;7.75;;
35917;SDS011;22011;59.912;30.300;2023-12-29T08:52:28;12.88;;;7.03;;
35917;SDS011;22011;59.912;30.300;2023-12-29T08:54:55;11.40;;;6.72;;
35917;SDS011;22011;59.912;30.300;2023-12-29T08:57:23;14.02;;;6.80;;
35917;SDS011;22011;59.912;30.300;2023-12-29T08:59:51;15.32;;;6.63;;
35917;SDS011;22011;59.912;30.300;2023-12-29T09:02:20;9.60;;;5.93;;
35917;SDS011;22011;59.912;30.300;2023-12-29T09:04:47;14.07;;;6.82;;
35917;SDS011;22011;59.912;30.300;2023-12-29T09:07:15;18.50;;;6.95;;
35917;SDS011;22011;59.912;30.300;2023-12-29T09:09:43;14.73;;;6.80;;
35917;SDS011;22011;59.912;30.300;2023-12-29T09:12:10;17.30;;;7.22;;
35917;SDS011;22011;59.912;30.300;2023-12-29T09:14:38;19.23;;;7.15;;
35917;SDS011;22011;59.912;30.300;2023-12-29T09:17:06;12.45;;;6.97;;
35917;SDS011;22011;59.912;30.300;2023-12-29T09:19:35;17.10;;;8.23;;
35917;SDS011;22011;59.912;30.300;2023-12-29T09:22:03;11.43;;;7.25;;
35917;SDS011;22011;59.912;30.300;2023-12-29T09:24:31;12.23;;;7.40;;
35917;SDS011;22011;59.912;30.300;2023-12-29T09:26:58;10.93;;;7.45;;
35917;SDS011;22011;59.912;30.300;2023-12-29T09:29:26;12.90;;;7.68;;
35917;SDS011;22011;59.912;30.300;2023-12-29T09:31:53;14.70;;;8.13;;
35917;SDS011;22011;59.912;30.300;2023-12-29T09:34:21;15.05;;;7.63;;
35917;SDS011;22011;59.912;30.300;2023-12-29T09:36:50;15.00;;;7.85;;
35917;SDS011;22011;59.912;30.300;2023-12-29T09:39:17;12.88;;;7.65;;
35917;SDS011;22011;59.912;30.300;2023-12-29T09:41:45;12.88;;;7.07;;
35917;SDS011;22011;59.912;30.300;2023-12-29T09:44:14;11.38;;;6.65;;
35917;SDS011;22011;59.912;30.300;2023-12-29T09:46:42;10.13;;;6.57;;
35917;SDS011;22011;59.912;30.300;2023-12-29T09:49:10;11.38;;;6.28;;
35917;SDS011;22011;59.912;30.300;2023-12-29T09:51:39;10.90;;;7.20;;
35917;SDS011;22011;59.912;30.300;2023-12-29T09:54:09;9.18;;;6.35;;
35917;SDS011;22011;59.912;30.300;2023-12-29T09:56:38;8.68;;;6.35;;
35917;SDS011;22011;59.912;30.300;2023-12-29T09:59:06;15.88;;;7.43;;
35917;SDS011;22011;59.912;30.300;2023-12-29T10:01:37;10.35;;;6.47;;
35917;SDS011;22011;59.912;30.300;2023-12-29T10:04:06;11.55;;;6.88;;
35917;SDS011;22011;59.912;30.300;2023-12-29T10:06:34;13.57;;;6.70;;
35917;SDS011;22011;59.912;30.300;2023-12-29T10:09:06;11.55;;;6.00;;
35917;SDS011;22011;59.912;30.300;2023-12-29T10:11:38;9.95;;;5.88;;
35917;SDS011;22011;59.912;30.300;2023-12-29T10:14:13;9.85;;;5.70;;
35917;SDS011;22011;59.912;30.300;2023-12-29T10:19:23;9.38;;;5.32;;
35917;SDS011;22011;59.912;30.300;2023-12-29T10:21:59;10.30;;;5.68;;
35917;SDS011;22011;59.912;30.300;2023-12-29T10:24:31;9.65;;;6.25;;
35917;SDS011;22011;59.912;30.300;2023-12-29T10:27:00;13.13;;;6.97;;
35917;SDS011;22011;59.912;30.300;2023-12-29T10:29:28;10.77;;;6.45;;
35917;SDS011;22011;59.912;30.300;2023-12-29T10:31:55;11.27;;;6.78;;
35917;SDS011;22011;59.912;30.300;2023-12-29T10:34:23;12.75;;;6.80;;
35917;SDS011;22011;59.912;30.300;2023-12-29T10:36:55;10.98;;;6.35;;
35917;SDS011;22011;59.912;30.300;2023-12-29T10:39:22;10.23;;;5.70;;
35917;SDS011;22011;59.912;30.300;2023-12-29T10:41:52;15.10;;;6.70;;
35917;SDS011;22011;59.912;30.300;2023-12-29T10:44:32;9.18;;;5.60;;
35917;SDS011;22011;59.912;30.300;2023-12-29T10:47:07;16.90;;;6.15;;
35917;SDS011;22011;59.912;30.300;2023-12-29T10:49:35;14.63;;;7.45;;
35917;SDS011;22011;59.912;30.300;2023-12-29T10:52:10;13.18;;;7.53;;
35917;SDS011;22011;59.912;30.300;2023-12-29T10:54:39;11.32;;;6.35;;
35917;SDS011;22011;59.912;30.300;2023-12-29T10:57:09;9.77;;;5.57;;
35917;SDS011;22011;59.912;30.300;2023-12-29T10:59:40;10.10;;;5.60;;
35917;SDS011;22011;59.912;30.300;2023-12-29T11:02:08;9.32;;;5.82;;
35917;SDS011;22011;59.912;30.300;2023-12-29T11:04:41;9.63;;;5.60;;
35917;SDS011;22011;59.912;30.300;2023-12-29T11:07:09;11.18;;;5.95;;
35917;SDS011;22011;59.912;30.300;2023-12-29T11:12:08;7.15;;;5.32;;
35917;SDS011;22011;59.912;30.300;2023-12-29T11:14:38;9.82;;;5.75;;
35917;SDS011;22011;59.912;30.300;2023-12-29T11:17:08;10.95;;;6.43;;
35917;SDS011;22011;59.912;30.300;2023-12-29T11:19:37;8.63;;;5.78;;
35917;SDS011;22011;59.912;30.300;2023-12-29T11:22:06;10.43;;;6.80;;
35917;SDS011;22011;59.912;30.300;2023-12-29T11:24:36;8.02;;;5.72;;
35917;SDS011;22011;59.912;30.300;2023-12-29T11:27:04;11.45;;;6.90;;
35917;SDS011;22011;59.912;30.300;2023-12-29T11:32:05;10.20;;;6.00;;
35917;SDS011;22011;59.912;30.300;2023-12-29T11:34:37;11.52;;;6.75;;
35917;SDS011;22011;59.912;30.300;2023-12-29T11:37:26;11.13;;;6.28;;
35917;SDS011;22011;59.912;30.300;2023-12-29T11:40:03;10.55;;;6.43;;
35917;SDS011;22011;59.912;30.300;2023-12-29T11:42:40;9.85;;;6.15;;
35917;SDS011;22011;59.912;30.300;2023-12-29T11:45:25;8.60;;;5.78;;
35917;SDS011;22011;59.912;30.300;2023-12-29T11:47:55;8.18;;;5.35;;
35917;SDS011;22011;59.912;30.300;2023-12-29T11:50:29;9.32;;;5.00;;
35917;SDS011;22011;59.912;30.300;2023-12-29T11:52:58;11.27;;;6.45;;
35917;SDS011;22011;59.912;30.300;2023-12-29T11:55:28;9.02;;;5.85;;
35917;SDS011;22011;59.912;30.300;2023-12-29T11:57:57;14.38;;;6.97;;
35917;SDS011;22011;59.912;30.300;2023-12-29T12:00:42;11.52;;;6.35;;
35917;SDS011;22011;59.912;30.300;2023-12-29T12:03:16;11.13;;;6.00;;
35917;SDS011;22011;59.912;30.300;2023-12-29T12:05:46;8.48;;;5.45;;
35917;SDS011;22011;59.912;30.300;2023-12-29T12:08:27;11.32;;;6.28;;
35917;SDS011;22011;59.912;30.300;2023-12-29T12:10:56;12.98;;;6.22;;
35917;SDS011;22011;59.912;30.300;2023-12-29T12:13:44;9.82;;;6.07;;
35917;SDS011;22011;59.912;30.300;2023-12-29T12:19:16;10.45;;;5.85;;
35917;SDS011;22011;59.912;30.300;2023-12-29T12:21:47;12.32;;;5.97;;
35917;SDS011;22011;59.912;30.300;2023-12-29T12:24:16;9.85;;;6.15;;
35917;SDS011;22011;59.912;30.300;2023-12-29T12:26:46;9.38;;;5.22;;
35917;SDS011;22011;59.912;30.300;2023-12-29T12:29:15;9.88;;;5.78;;
35917;SDS011;22011;59.912;30.300;2023-12-29T12:31:52;9.30;;;5.78;;
35917;SDS011;22011;59.912;30.300;2023-12-29T12:34:24;12.80;;;6.32;;
35917;SDS011;22011;59.912;30.300;2023-12-29T12:36:52;10.10;;;6.88;;
35917;SDS011;22011;59.912;30.300;2023-12-29T12:39:22;11.02;;;6.22;;
35917;SDS011;22011;59.912;30.300;2023-12-29T12:41:50;16.60;;;9.25;;
35917;SDS011;22011;59.912;30.300;2023-12-29T12:44:18;16.42;;;8.98;;
35917;SDS011;22011;59.912;30.300;2023-12-29T12:46:49;10.30;;;6.07;;
35917;SDS011;22011;59.912;30.300;2023-12-29T12:49:20;8.27;;;5.13;;
35917;SDS011;22011;59.912;30.300;2023-12-29T12:51:48;12.52;;;4.95;;
35917;SDS011;22011;59.912;30.300;2023-12-29T12:54:17;7.60;;;4.88;;
35917;SDS011;22011;59.912;30.300;2023-12-29T12:56:46;9.05;;;4.60;;
35917;SDS011;22011;59.912;30.300;2023-12-29T12:59:14;8.02;;;4.85;;
35917;SDS011;22011;59.912;30.300;2023-12-29T13:01:43;9.23;;;6.07;;
35917;SDS011;22011;59.912;30.300;2023-12-29T13:04:11;10.50;;;5.25;;
35917;SDS011;22011;59.912;30.300;2023-12-29T13:06:41;8.20;;;5.30;;
35917;SDS011;22011;59.912;30.300;2023-12-29T13:09:10;8.65;;;5.28;;
35917;SDS011;22011;59.912;30.300;2023-12-29T13:11:38;10.98;;;5.50;;
35917;SDS011;22011;59.912;30.300;2023-12-29T13:14:07;8.85;;;4.95;;
35917;SDS011;22011;59.912;30.300;2023-12-29T13:16:35;8.40;;;4.93;;
35917;SDS011;22011;59.912;30.300;2023-12-29T13:19:15;9.65;;;5.07;;
35917;SDS011;22011;59.912;30.300;2023-12-29T13:21:46;10.23;;;6.10;;
35917;SDS011;22011;59.912;30.300;2023-12-29T13:24:15;7.28;;;5.00;;
35917;SDS011;22011;59.912;30.300;2023-12-29T13:26:43;7.60;;;5.05;;
35917;SDS011;22011;59.912;30.300;2023-12-29T13:31:41;5.90;;;4.20;;
35917;SDS011;22011;59.912;30.300;2023-12-29T13:34:11;6.88;;;4.53;;
35917;SDS011;22011;59.912;30.300;2023-12-29T13:36:43;7.28;;;5.40;;
35917;SDS011;22011;59.912;30.300;2023-12-29T13:39:21;7.70;;;4.47;;
35917;SDS011;22011;59.912;30.300;2023-12-29T13:41:52;8.40;;;5.07;;
35917;SDS011;22011;59.912;30.300;2023-12-29T13:44:20;7.47;;;4.85;;
35917;SDS011;22011;59.912;30.300;2023-12-29T13:46:48;8.68;;;4.88;;
35917;SDS011;22011;59.912;30.300;2023-12-29T13:49:18;7.03;;;4.45;;
35917;SDS011;22011;59.912;30.300;2023-12-29T13:51:46;7.80;;;5.05;;
35917;SDS011;22011;59.912;30.300;2023-12-29T13:54:15;9.02;;;4.63;;
35917;SDS011;22011;59.912;30.300;2023-12-29T13:56:52;7.70;;;4.45;;
35917;SDS011;22011;59.912;30.300;2023-12-29T13:59:28;7.45;;;4.43;;
35917;SDS011;22011;59.912;30.300;2023-12-29T14:01:58;8.07;;;5.40;;
35917;SDS011;22011;59.912;30.300;2023-12-29T14:04:27;8.93;;;5.47;;
35917;SDS011;22011;59.912;30.300;2023-12-29T14:06:59;7.45;;;4.57;;
35917;SDS011;22011;59.912;30.300;2023-12-29T14:09:30;8.75;;;4.95;;
35917;SDS011;22011;59.912;30.300;2023-12-29T14:11:58;12.18;;;5.88;;
35917;SDS011;22011;59.912;30.300;2023-12-29T14:14:26;11.50;;;6.10;;
35917;SDS011;22011;59.912;30.300;2023-12-29T14:16:53;7.97;;;5.75;;
35917;SDS011;22011;59.912;30.300;2023-12-29T14:19:22;9.57;;;5.97;;
35917;SDS011;22011;59.912;30.300;2023-12-29T14:21:50;11.35;;;5.88;;
35917;SDS011;22011;59.912;30.300;2023-12-29T14:24:20;8.82;;;5.40;;
35917;SDS011;22011;59.912;30.300;2023-12-29T14:26:56;7.35;;;4.85;;
35917;SDS011;22011;59.912;30.300;2023-12-29T14:29:24;8.35;;;4.78;;
35917;SDS011;22011;59.912;30.300;2023-12-29T14:31:52;8.25;;;5.22;;
35917;SDS011;22011;59.912;30.300;2023-12-29T14:34:22;14.17;;;5.57;;
35917;SDS011;22011;59.912;30.300;2023-12-29T14:36:49;9.75;;;4.55;;
35917;SDS011;22011;59.912;30.300;2023-12-29T14:39:17;7.68;;;4.90;;
35917;SDS011;22011;59.912;30.300;2023-12-29T14:41:45;8.20;;;4.93;;
35917;SDS011;22011;59.912;30.300;2023-12-29T14:44:15;8.85;;;4.75;;
35917;SDS011;22011;59.912;30.300;2023-12-29T14:46:43;7.95;;;4.80;;
35917;SDS011;22011;59.912;30.300;2023-12-29T14:49:10;9.95;;;4.97;;
35917;SDS011;22011;59.912;30.300;2023-12-29T14:51:38;8.45;;;4.75;;